createdAt,value
2022-08-22T00:01:42.349Z,20.69
2022-08-22T00:02:48.935Z,22.04
2022-08-22T00:03:00.023Z,23.06
2022-08-22T00:03:00.353Z,21.47
2022-08-22T00:03:02.257Z,22.51
2022-08-22T00:03:10.730Z,20.56
2022-08-22T00:04:09.636Z,20.64
2022-08-22T00:07:04.456Z,20.55
2022-08-22T00:09:53.470Z,20.55
2022-08-22T00:12:52.695Z,20.51
2022-08-22T00:15:42.277Z,20.51
2022-08-22T00:18:13.900Z,20.55
2022-08-22T00:21:03.496Z,20.57
2022-08-22T00:23:38.650Z,20.49
2022-08-22T00:26:44.729Z,20.51
2022-08-22T00:29:22.070Z,20.36
2022-08-22T00:31:56.703Z,20.46
2022-08-22T00:34:32.735Z,20.56
2022-08-22T00:37:02.573Z,20.53
2022-08-22T00:40:03.191Z,20.48
2022-08-22T00:42:40.458Z,20.49
2022-08-22T00:45:53.640Z,20.57
2022-08-22T00:49:00.001Z,20.44
2022-08-22T00:52:13.093Z,20.37
2022-08-22T00:54:55.785Z,20.39
2022-08-22T00:57:31.908Z,20.45
2022-08-22T01:00:14.781Z,20.40
2022-08-22T01:02:58.617Z,20.28
2022-08-22T01:05:54.013Z,20.37
2022-08-22T01:08:33.902Z,20.51
2022-08-22T01:11:09.961Z,20.38
2022-08-22T01:13:58.635Z,20.52
2022-08-22T01:16:34.836Z,20.65
2022-08-22T01:19:52.822Z,20.81
2022-08-22T01:22:44.234Z,20.84
2022-08-22T01:25:26.145Z,20.27
2022-08-22T01:28:23.336Z,19.87
2022-08-22T01:31:20.460Z,19.61
2022-08-22T01:34:15.555Z,19.57
2022-08-22T01:36:51.642Z,19.35
2022-08-22T01:39:46.496Z,19.24
2022-08-22T01:42:15.211Z,19.47
2022-08-22T01:45:01.207Z,19.61
2022-08-22T01:47:43.791Z,19.43
2022-08-22T01:50:17.706Z,19.25
2022-08-22T01:52:48.844Z,19.15
2022-08-22T01:55:24.636Z,19.38
2022-08-22T01:57:53.393Z,19.52
2022-08-22T02:00:35.555Z,19.58
2022-08-22T02:03:31.792Z,19.64
2022-08-22T02:06:07.428Z,19.73
2022-08-22T02:08:59.093Z,19.69
2022-08-22T02:11:39.262Z,19.66
2022-08-22T02:14:21.470Z,19.62
2022-08-22T02:16:53.877Z,19.51
2022-08-22T02:19:34.494Z,19.52
2022-08-22T02:22:20.253Z,19.48
2022-08-22T02:25:13.511Z,19.54
2022-08-22T02:28:10.078Z,19.47
2022-08-22T02:30:52.414Z,19.64
2022-08-22T02:33:45.838Z,19.72
2022-08-22T02:36:32.512Z,19.63
2022-08-22T02:39:19.700Z,19.56
2022-08-22T02:41:55.778Z,19.64
2022-08-22T02:44:29.883Z,19.55
2022-08-22T02:47:10.666Z,19.67
2022-08-22T02:49:43.662Z,19.65
2022-08-22T02:52:25.326Z,19.68
2022-08-22T02:55:04.104Z,19.61
2022-08-22T02:57:39.346Z,19.56
2022-08-22T03:00:31.844Z,19.47
2022-08-22T03:03:14.536Z,19.45
2022-08-22T03:05:47.371Z,19.52
2022-08-22T03:08:21.259Z,19.55
2022-08-22T03:10:56.624Z,19.61
2022-08-22T03:13:36.114Z,19.62
2022-08-22T03:16:29.572Z,19.67
2022-08-22T03:19:04.808Z,19.81
2022-08-22T03:21:56.009Z,19.83
2022-08-22T03:24:35.368Z,19.66
2022-08-22T03:27:31.353Z,19.63
2022-08-22T03:30:07.812Z,19.61
2022-08-22T03:32:54.545Z,19.63
2022-08-22T03:35:46.533Z,19.74
2022-08-22T03:38:35.084Z,19.70
2022-08-22T03:41:21.032Z,19.69
2022-08-22T03:44:03.284Z,19.65
2022-08-22T03:46:39.552Z,19.65
2022-08-22T03:49:45.314Z,19.67
2022-08-22T03:53:03.040Z,19.70
2022-08-22T03:55:54.880Z,19.69
2022-08-22T03:58:46.876Z,19.60
2022-08-22T04:01:46.267Z,19.68
2022-08-22T04:04:31.728Z,19.75
2022-08-22T04:07:42.705Z,19.85
2022-08-22T04:10:31.849Z,19.84
2022-08-22T04:13:13.886Z,19.97
2022-08-22T04:15:47.005Z,19.97
2022-08-22T04:18:28.931Z,19.97
2022-08-22T04:21:21.610Z,19.99
2022-08-22T04:24:07.202Z,20.07
2022-08-22T04:26:41.945Z,20.11
2022-08-22T04:29:26.802Z,20.09
2022-08-22T04:32:28.968Z,20.19
2022-08-22T04:35:00.003Z,20.26
2022-08-22T04:37:51.064Z,20.25
2022-08-22T04:40:47.397Z,20.23
2022-08-22T04:43:34.208Z,20.31
2022-08-22T04:46:23.039Z,20.35
2022-08-22T04:48:50.102Z,20.40
2022-08-22T04:51:26.670Z,20.43
2022-08-22T04:54:09.075Z,20.60
2022-08-22T04:56:54.689Z,20.72
2022-08-22T04:59:24.624Z,20.74
2022-08-22T05:01:57.839Z,20.82
2022-08-22T05:04:32.420Z,20.97
2022-08-22T05:07:17.181Z,21.10
2022-08-22T05:09:51.827Z,21.07
2022-08-22T05:12:30.579Z,21.05
2022-08-22T05:15:05.735Z,20.94
2022-08-22T05:17:38.807Z,21.00
2022-08-22T05:20:10.136Z,21.18
2022-08-22T05:22:42.288Z,21.28
2022-08-22T05:25:15.191Z,21.06
2022-08-22T05:27:48.389Z,21.13
2022-08-22T05:30:25.051Z,21.26
2022-08-22T05:33:15.294Z,21.32
2022-08-22T05:35:54.624Z,21.29
2022-08-22T05:38:30.114Z,21.38
2022-08-22T05:41:05.759Z,21.43
2022-08-22T05:43:38.467Z,21.62
2022-08-22T05:46:09.952Z,21.65
2022-08-22T05:48:46.412Z,21.78
2022-08-22T05:51:22.255Z,21.92
2022-08-22T05:53:58.053Z,21.87
2022-08-22T05:56:47.931Z,22.00
2022-08-22T05:59:27.911Z,22.29
2022-08-22T06:02:21.811Z,22.24
2022-08-22T06:05:00.984Z,22.53
2022-08-22T06:07:33.931Z,22.78
2022-08-22T06:10:14.564Z,22.83
2022-08-22T06:12:44.629Z,22.79
2022-08-22T06:15:21.047Z,22.94
2022-08-22T06:17:52.628Z,22.88
2022-08-22T06:20:24.288Z,22.98
2022-08-22T06:22:59.073Z,23.08
2022-08-22T06:25:32.399Z,23.07
2022-08-22T06:28:13.014Z,23.15
2022-08-22T06:30:40.779Z,22.96
2022-08-22T06:33:12.853Z,22.93
2022-08-22T06:36:13.903Z,22.81
2022-08-22T06:39:23.137Z,22.90
2022-08-22T06:41:59.323Z,22.94
2022-08-22T06:44:39.574Z,23.05
2022-08-22T06:47:10.384Z,22.95
2022-08-22T06:49:40.636Z,22.92
2022-08-22T06:52:11.680Z,22.97
2022-08-22T06:54:44.758Z,23.03
2022-08-22T06:57:35.576Z,23.19
2022-08-22T07:00:10.530Z,23.26
2022-08-22T07:02:45.357Z,23.33
2022-08-22T07:05:34.447Z,23.59
2022-08-22T07:08:10.911Z,23.68
2022-08-22T07:10:43.656Z,23.73
2022-08-22T07:13:16.487Z,23.73
2022-08-22T07:15:44.057Z,23.97
2022-08-22T07:18:20.820Z,24.04
2022-08-22T07:20:54.968Z,24.07
2022-08-22T07:23:25.154Z,24.45
2022-08-22T07:26:02.544Z,24.24
2022-08-22T07:28:51.226Z,24.22
2022-08-22T07:31:44.523Z,24.42
2022-08-22T07:34:56.893Z,24.33
2022-08-22T07:37:23.952Z,24.03
2022-08-22T07:40:16.758Z,24.23
2022-08-22T07:42:48.140Z,24.52
2022-08-22T07:45:20.824Z,24.51
2022-08-22T07:48:26.158Z,24.88
2022-08-22T07:51:09.203Z,25.08
2022-08-22T07:53:42.010Z,25.19
2022-08-22T07:56:16.660Z,25.21
2022-08-22T07:58:48.530Z,25.05
2022-08-22T08:01:22.358Z,24.93
2022-08-22T08:04:02.252Z,24.93
2022-08-22T08:06:32.517Z,24.66
2022-08-22T08:08:59.741Z,24.81
2022-08-22T08:11:32.392Z,24.90
2022-08-22T08:14:04.885Z,25.24
2022-08-22T08:16:40.981Z,25.24
2022-08-22T08:19:10.911Z,25.33
2022-08-22T08:21:43.557Z,25.34
2022-08-22T08:24:15.942Z,25.47
2022-08-22T08:27:08.377Z,25.36
2022-08-22T08:29:37.123Z,25.74
2022-08-22T08:32:05.967Z,25.83
2022-08-22T08:34:45.665Z,25.89
2022-08-22T08:37:25.712Z,25.74
2022-08-22T08:39:58.239Z,25.85
2022-08-22T08:43:02.738Z,25.98
2022-08-22T08:45:42.150Z,26.34
2022-08-22T08:48:18.720Z,26.46
2022-08-22T08:50:57.624Z,25.99
2022-08-22T08:53:53.121Z,25.99
2022-08-22T08:56:35.679Z,26.09
2022-08-22T08:59:44.178Z,26.31
2022-08-22T09:02:23.637Z,26.58
2022-08-22T09:05:12.767Z,26.41
2022-08-22T09:07:39.997Z,26.48
2022-08-22T09:10:22.473Z,26.62
2022-08-22T09:13:29.169Z,26.70
2022-08-22T09:16:23.254Z,26.85
2022-08-22T09:19:11.621Z,27.03
2022-08-22T09:22:25.129Z,27.00
2022-08-22T09:25:06.249Z,26.72
2022-08-22T09:27:45.945Z,26.91
2022-08-22T09:30:28.886Z,27.20
2022-08-22T09:33:06.429Z,27.43
2022-08-22T09:35:51.873Z,27.57
2022-08-22T09:38:39.996Z,27.39
2022-08-22T09:41:35.622Z,27.47
2022-08-22T09:44:24.928Z,27.37
2022-08-22T09:47:35.460Z,27.42
2022-08-22T09:50:20.690Z,27.55
2022-08-22T09:53:11.080Z,27.49
2022-08-22T09:56:11.557Z,27.66
2022-08-22T09:58:51.616Z,27.95
2022-08-22T10:01:18.836Z,27.98
2022-08-22T10:03:46.104Z,28.05
2022-08-22T10:06:21.245Z,28.07
2022-08-22T10:09:18.721Z,27.90
2022-08-22T10:11:54.095Z,28.14
2022-08-22T10:14:50.582Z,28.23
2022-08-22T10:17:26.144Z,28.28
2022-08-22T10:20:14.444Z,28.33
2022-08-22T10:22:56.320Z,28.26
2022-08-22T10:25:42.152Z,28.34
2022-08-22T10:28:21.491Z,28.11
2022-08-22T10:30:52.066Z,28.15
2022-08-22T10:33:32.745Z,27.88
2022-08-22T10:36:12.096Z,27.91
2022-08-22T10:38:52.450Z,28.27
2022-08-22T10:41:28.585Z,28.25
2022-08-22T10:44:43.030Z,28.42
2022-08-22T10:47:19.086Z,28.66
2022-08-22T10:49:53.987Z,28.61
2022-08-22T10:52:45.645Z,28.56
2022-08-22T10:55:17.569Z,28.76
2022-08-22T10:57:53.890Z,28.81
2022-08-22T11:00:37.950Z,28.85
2022-08-22T11:03:35.681Z,28.85
2022-08-22T11:06:21.497Z,28.70
2022-08-22T11:09:20.487Z,28.74
2022-08-22T11:12:02.757Z,28.87
2022-08-22T11:14:53.730Z,28.74
2022-08-22T11:17:54.256Z,28.74
2022-08-22T11:20:36.044Z,28.99
2022-08-22T11:23:19.541Z,28.90
2022-08-22T11:26:07.614Z,28.91
2022-08-22T11:28:52.773Z,29.01
2022-08-22T11:31:51.662Z,29.08
2022-08-22T11:34:38.800Z,29.03
2022-08-22T11:37:23.846Z,28.81
2022-08-22T11:40:40.141Z,28.72
2022-08-22T11:43:46.560Z,28.82
2022-08-22T11:46:38.614Z,28.86
2022-08-22T11:49:33.880Z,28.70
2022-08-22T11:52:03.945Z,28.87
2022-08-22T11:54:47.916Z,28.98
2022-08-22T11:57:37.296Z,28.88
2022-08-22T12:00:11.328Z,28.94
2022-08-22T12:03:27.609Z,29.02
2022-08-22T12:06:08.601Z,28.92
2022-08-22T12:08:35.848Z,28.83
2022-08-22T12:11:17.846Z,28.97
2022-08-22T12:13:50.484Z,28.85
2022-08-22T12:16:24.184Z,29.00
2022-08-22T12:19:16.610Z,29.10
2022-08-22T12:22:02.182Z,29.23
2022-08-22T12:24:36.314Z,29.19
2022-08-22T12:27:30.758Z,29.05
2022-08-22T12:30:22.581Z,29.13
2022-08-22T12:33:13.045Z,29.15
2022-08-22T12:35:58.460Z,29.20
2022-08-22T12:38:54.388Z,29.06
2022-08-22T12:41:40.284Z,29.23
2022-08-22T12:44:26.256Z,28.97
2022-08-22T12:47:02.175Z,28.98
2022-08-22T12:49:52.551Z,28.88
2022-08-22T12:52:41.107Z,29.10
2022-08-22T12:55:30.203Z,29.09
2022-08-22T12:58:20.154Z,29.12
2022-08-22T13:00:48.307Z,29.19
2022-08-22T13:03:53.999Z,29.11
2022-08-22T13:06:37.913Z,29.06
2022-08-22T13:09:31.491Z,28.91
2022-08-22T13:12:05.665Z,28.91
2022-08-22T13:14:34.892Z,28.96
2022-08-22T13:17:15.251Z,28.90
2022-08-22T13:20:03.880Z,29.08
2022-08-22T13:22:35.471Z,28.95
2022-08-22T13:25:16.429Z,28.93
2022-08-22T13:27:59.387Z,28.84
2022-08-22T13:30:37.971Z,28.95
2022-08-22T13:33:15.331Z,29.00
2022-08-22T13:35:52.590Z,29.02
2022-08-22T13:38:28.496Z,28.87
2022-08-22T13:41:00.913Z,28.87
2022-08-22T13:43:38.111Z,28.91
2022-08-22T13:46:10.943Z,28.88
2022-08-22T13:48:46.707Z,28.78
2022-08-22T13:51:40.217Z,28.97
2022-08-22T13:54:11.168Z,28.91
2022-08-22T13:56:52.876Z,28.97
2022-08-22T13:59:49.781Z,28.92
2022-08-22T14:02:21.976Z,28.94
2022-08-22T14:04:53.195Z,28.80
2022-08-22T14:07:30.020Z,28.80
2022-08-22T14:10:23.876Z,28.75
2022-08-22T14:12:57.506Z,28.77
2022-08-22T14:15:32.120Z,28.80
2022-08-22T14:18:15.408Z,28.89
2022-08-22T14:20:48.367Z,28.85
2022-08-22T14:23:32.085Z,28.79
2022-08-22T14:26:01.926Z,28.90
2022-08-22T14:28:35.587Z,28.82
2022-08-22T14:31:14.470Z,28.79
2022-08-22T14:33:50.999Z,28.72
2022-08-22T14:36:35.557Z,28.81
2022-08-22T14:39:11.325Z,28.88
2022-08-22T14:41:55.999Z,28.83
2022-08-22T14:44:36.850Z,28.75
2022-08-22T14:47:34.468Z,28.71
2022-08-22T14:50:02.638Z,28.73
2022-08-22T14:52:36.440Z,28.83
2022-08-22T14:55:23.260Z,28.71
2022-08-22T14:57:55.845Z,28.74
2022-08-22T15:00:40.159Z,28.62
2022-08-22T15:03:11.566Z,28.63
2022-08-22T15:05:46.277Z,28.44
2022-08-22T15:08:24.292Z,28.51
2022-08-22T15:11:12.437Z,28.47
2022-08-22T15:13:50.192Z,28.47
2022-08-22T15:16:23.468Z,28.45
2022-08-22T15:18:51.762Z,28.38
2022-08-22T15:21:26.668Z,28.28
2022-08-22T15:23:59.941Z,28.38
2022-08-22T15:26:50.184Z,28.40
2022-08-22T15:29:22.815Z,28.36
2022-08-22T15:31:54.161Z,28.30
2022-08-22T15:34:35.803Z,28.16
2022-08-22T15:37:16.613Z,28.29
2022-08-22T15:40:11.895Z,28.21
2022-08-22T15:42:45.129Z,28.10
2022-08-22T15:45:34.719Z,28.15
2022-08-22T15:48:09.806Z,28.10
2022-08-22T15:50:54.669Z,28.05
2022-08-22T15:53:30.381Z,27.93
2022-08-22T15:56:06.890Z,27.97
2022-08-22T15:58:40.349Z,27.97
2022-08-22T16:01:26.247Z,28.00
2022-08-22T16:03:56.118Z,27.96
2022-08-22T16:06:55.301Z,27.84
2022-08-22T16:09:46.901Z,27.61
2022-08-22T16:12:38.434Z,27.54
2022-08-22T16:15:27.364Z,27.43
2022-08-22T16:17:57.450Z,27.47
2022-08-22T16:20:24.540Z,27.45
2022-08-22T16:22:57.948Z,27.38
2022-08-22T16:26:03.204Z,27.25
2022-08-22T16:28:57.294Z,27.24
2022-08-22T16:31:27.698Z,27.28
2022-08-22T16:34:20.451Z,27.23
2022-08-22T16:36:47.715Z,27.16
2022-08-22T16:39:21.376Z,27.10
2022-08-22T16:42:16.166Z,27.07
2022-08-22T16:44:49.278Z,27.01
2022-08-22T16:47:30.704Z,26.86
2022-08-22T16:50:04.528Z,26.94
2022-08-22T16:52:33.375Z,26.87
2022-08-22T16:55:35.830Z,26.85
2022-08-22T16:58:49.852Z,26.78
2022-08-22T17:01:36.439Z,26.76
2022-08-22T17:04:45.255Z,26.72
2022-08-22T17:07:38.378Z,26.70
2022-08-22T17:10:24.864Z,26.66
2022-08-22T17:13:26.284Z,26.61
2022-08-22T17:16:13.542Z,26.59
2022-08-22T17:18:46.245Z,26.55
2022-08-22T17:21:32.625Z,26.49
2022-08-22T17:24:32.261Z,26.40
2022-08-22T17:27:19.732Z,26.42
2022-08-22T17:30:01.928Z,26.36
2022-08-22T17:32:37.367Z,26.30
2022-08-22T17:35:36.049Z,26.29
2022-08-22T17:38:29.040Z,26.23
2022-08-22T17:41:28.559Z,26.22
2022-08-22T17:44:22.817Z,26.21
2022-08-22T17:46:50.036Z,26.22
2022-08-22T17:49:45.937Z,26.22
2022-08-22T17:52:31.450Z,26.16
2022-08-22T17:55:07.668Z,26.15
2022-08-22T17:57:51.967Z,26.11
2022-08-22T18:00:26.186Z,26.12
2022-08-22T18:03:00.960Z,26.05
2022-08-22T18:05:32.856Z,25.89
2022-08-22T18:08:37.561Z,26.02
2022-08-22T18:11:12.889Z,25.88
2022-08-22T18:14:07.405Z,25.88
2022-08-22T18:16:50.172Z,25.90
2022-08-22T18:19:40.558Z,25.84
2022-08-22T18:22:28.375Z,25.86
2022-08-22T18:25:05.788Z,25.82
2022-08-22T18:28:02.189Z,25.86
2022-08-22T18:30:33.383Z,25.92
2022-08-22T18:33:41.096Z,25.97
2022-08-22T18:36:38.171Z,25.73
2022-08-22T18:39:28.725Z,25.81
2022-08-22T18:42:18.119Z,25.72
2022-08-22T18:44:45.518Z,25.58
2022-08-22T18:47:25.595Z,25.61
2022-08-22T18:49:54.633Z,25.59
2022-08-22T18:52:27.964Z,25.56
2022-08-22T18:55:25.310Z,25.59
2022-08-22T18:58:17.257Z,25.58
2022-08-22T19:01:03.292Z,25.48
2022-08-22T19:03:47.376Z,25.47
2022-08-22T19:06:43.576Z,25.50
2022-08-22T19:09:52.331Z,25.40
2022-08-22T19:12:19.688Z,25.35
2022-08-22T19:14:58.646Z,25.31
2022-08-22T19:17:28.860Z,25.27
2022-08-22T19:20:41.555Z,25.20
2022-08-22T19:23:33.181Z,25.24
2022-08-22T19:26:25.178Z,25.19
2022-08-22T19:29:07.678Z,25.16
2022-08-22T19:31:41.317Z,25.10
2022-08-22T19:34:32.780Z,25.05
2022-08-22T19:37:32.340Z,25.00
2022-08-22T19:40:11.386Z,24.96
2022-08-22T19:42:41.783Z,24.90
2022-08-22T19:45:09.457Z,25.00
2022-08-22T19:47:42.601Z,24.92
2022-08-22T19:50:28.175Z,24.87
2022-08-22T19:53:49.627Z,24.91
2022-08-22T19:56:29.475Z,24.90
2022-08-22T19:58:59.282Z,24.82
2022-08-22T20:01:48.112Z,24.78
2022-08-22T20:04:42.430Z,24.82
2022-08-22T20:07:38.568Z,24.76
2022-08-22T20:10:44.096Z,24.76
2022-08-22T20:13:24.039Z,24.77
2022-08-22T20:16:10.327Z,24.76
2022-08-22T20:19:07.825Z,24.76
2022-08-22T20:22:02.211Z,24.73
2022-08-22T20:24:49.631Z,24.68
2022-08-22T20:27:31.096Z,24.76
2022-08-22T20:30:18.810Z,24.62
2022-08-22T20:32:53.846Z,24.58
2022-08-22T20:35:26.863Z,24.51
2022-08-22T20:38:06.747Z,24.53
2022-08-22T20:40:54.846Z,24.39
2022-08-22T20:43:55.280Z,24.36
2022-08-22T20:46:46.109Z,24.28
2022-08-22T20:49:28.699Z,24.21
2022-08-22T20:52:10.526Z,24.14
2022-08-22T20:54:40.861Z,24.22
2022-08-22T20:57:18.275Z,24.14
2022-08-22T21:00:05.815Z,24.09
2022-08-22T21:02:39.458Z,24.16
2022-08-22T21:05:18.650Z,24.06
2022-08-22T21:07:48.703Z,24.11
2022-08-22T21:10:39.961Z,24.10
2022-08-22T21:13:13.326Z,24.09
2022-08-22T21:15:48.997Z,24.18
2022-08-22T21:18:31.618Z,24.12
2022-08-22T21:21:20.622Z,24.12
2022-08-22T21:24:07.923Z,24.07
2022-08-22T21:26:55.834Z,24.03
2022-08-22T21:29:33.852Z,23.99
2022-08-22T21:32:18.755Z,24.07
2022-08-22T21:34:49.062Z,24.04
2022-08-22T21:37:29.782Z,23.96
2022-08-22T21:40:19.287Z,23.96
2022-08-22T21:43:03.502Z,23.86
2022-08-22T21:45:38.330Z,23.88
2022-08-22T21:48:30.304Z,23.92
2022-08-22T21:51:40.812Z,23.90
2022-08-22T21:54:26.130Z,23.90
2022-08-22T21:56:55.807Z,23.82
2022-08-22T21:59:51.980Z,23.91
2022-08-22T22:02:36.367Z,23.87
2022-08-22T22:05:11.442Z,23.83
2022-08-22T22:07:42.098Z,23.82
2022-08-22T22:10:12.820Z,23.70
2022-08-22T22:12:42.949Z,23.77
2022-08-22T22:15:15.250Z,23.74
2022-08-22T22:17:43.414Z,23.74
2022-08-22T22:20:12.556Z,23.71
2022-08-22T22:22:45.764Z,23.66
2022-08-22T22:25:40.415Z,23.65
2022-08-22T22:28:16.504Z,23.66
2022-08-22T22:30:45.484Z,23.65
2022-08-22T22:33:12.919Z,23.39
2022-08-22T22:35:40.768Z,23.43
2022-08-22T22:38:08.720Z,23.40
2022-08-22T22:40:36.380Z,23.41
2022-08-22T22:43:04.103Z,23.42
2022-08-22T22:45:31.308Z,23.41
2022-08-22T22:47:58.728Z,23.37
2022-08-22T22:50:26.523Z,23.27
2022-08-22T22:52:54.205Z,23.16
2022-08-22T22:55:24.574Z,23.18
2022-08-22T22:57:59.262Z,23.05
2022-08-22T23:00:31.744Z,23.04
2022-08-22T23:03:01.624Z,23.02
2022-08-22T23:05:32.797Z,22.92
2022-08-22T23:08:00.620Z,23.01
2022-08-22T23:10:29.696Z,22.99
2022-08-22T23:12:57.190Z,22.92
2022-08-22T23:15:24.570Z,22.96
2022-08-22T23:17:51.746Z,22.86
2022-08-22T23:20:19.311Z,22.80
2022-08-22T23:22:46.540Z,22.75
2022-08-22T23:25:14.608Z,22.70
2022-08-22T23:27:41.872Z,22.63
2022-08-22T23:30:10.615Z,22.44
2022-08-22T23:32:38.202Z,22.33
2022-08-22T23:35:05.916Z,22.42
2022-08-22T23:37:33.091Z,22.54
2022-08-22T23:40:00.340Z,22.61
2022-08-22T23:42:29.190Z,22.66
2022-08-22T23:44:56.389Z,22.65
2022-08-22T23:47:23.527Z,22.62
2022-08-22T23:49:50.797Z,22.64
2022-08-22T23:52:17.916Z,22.65
2022-08-22T23:54:45.048Z,22.57
2022-08-22T23:57:12.784Z,22.58
2022-08-22T23:59:48.459Z,22.54
